sensor_id;sensor_type;location;lat;lon;timestamp;temperature;humidity
26575;DHT22;67165;50.256;10.978;2023-07-20T00:01:46;16.50;98.00
26575;DHT22;67165;50.256;10.978;2023-07-20T00:04:13;16.50;98.00
26575;DHT22;67165;50.256;10.978;2023-07-20T00:06:39;16.50;98.00
26575;DHT22;67165;50.256;10.978;2023-07-20T00:09:06;16.50;98.00
26575;DHT22;67165;50.256;10.978;2023-07-20T00:11:31;16.50;98.00
26575;DHT22;67165;50.256;10.978;2023-07-20T00:13:57;16.50;98.00
26575;DHT22;67165;50.256;10.978;2023-07-20T00:16:23;16.50;98.00
26575;DHT22;67165;50.256;10.978;2023-07-20T00:18:48;16.40;98.00
26575;DHT22;67165;50.256;10.978;2023-07-20T00:21:14;16.40;98.00
26575;DHT22;67165;50.256;10.978;2023-07-20T00:23:39;16.30;98.00
26575;DHT22;67165;50.256;10.978;2023-07-20T00:26:05;16.30;98.00
26575;DHT22;67165;50.256;10.978;2023-07-20T00:28:31;16.30;98.00
26575;DHT22;67165;50.256;10.978;2023-07-20T00:30:56;16.30;98.00
26575;DHT22;67165;50.256;10.978;2023-07-20T00:33:24;16.30;98.00
26575;DHT22;67165;50.256;10.978;2023-07-20T00:35:51;16.20;98.00
26575;DHT22;67165;50.256;10.978;2023-07-20T00:38:16;16.20;98.00
26575;DHT22;67165;50.256;10.978;2023-07-20T00:40:42;16.20;98.00
26575;DHT22;67165;50.256;10.978;2023-07-20T00:43:08;16.20;98.00
26575;DHT22;67165;50.256;10.978;2023-07-20T00:45:34;16.10;98.00
26575;DHT22;67165;50.256;10.978;2023-07-20T00:48:02;16.10;98.00
26575;DHT22;67165;50.256;10.978;2023-07-20T00:50:29;16.10;98.00
26575;DHT22;67165;50.256;10.978;2023-07-20T00:52:56;16.10;98.00
26575;DHT22;67165;50.256;10.978;2023-07-20T00:55:23;16.10;98.00
26575;DHT22;67165;50.256;10.978;2023-07-20T00:57:53;16.10;98.00
26575;DHT22;67165;50.256;10.978;2023-07-20T01:00:19;16.00;98.00
26575;DHT22;67165;50.256;10.978;2023-07-20T01:02:45;16.00;98.00
26575;DHT22;67165;50.256;10.978;2023-07-20T01:05:11;16.00;98.00
26575;DHT22;67165;50.256;10.978;2023-07-20T01:07:55;16.00;98.00
26575;DHT22;67165;50.256;10.978;2023-07-20T01:13:01;15.90;98.00
26575;DHT22;67165;50.256;10.978;2023-07-20T01:15:28;15.90;98.00
26575;DHT22;67165;50.256;10.978;2023-07-20T01:17:54;15.90;98.00
26575;DHT22;67165;50.256;10.978;2023-07-20T01:20:21;15.90;98.00
26575;DHT22;67165;50.256;10.978;2023-07-20T01:23:31;15.90;98.00
26575;DHT22;67165;50.256;10.978;2023-07-20T01:31:30;15.80;98.00
26575;DHT22;67165;50.256;10.978;2023-07-20T01:33:59;15.80;98.00
26575;DHT22;67165;50.256;10.978;2023-07-20T01:36:29;15.80;98.00
26575;DHT22;67165;50.256;10.978;2023-07-20T01:38:56;15.80;98.00
26575;DHT22;67165;50.256;10.978;2023-07-20T01:41:22;15.80;98.00
26575;DHT22;67165;50.256;10.978;2023-07-20T01:43:48;15.70;98.00
26575;DHT22;67165;50.256;10.978;2023-07-20T01:46:14;15.70;98.00
26575;DHT22;67165;50.256;10.978;2023-07-20T01:48:40;15.70;98.00
26575;DHT22;67165;50.256;10.978;2023-07-20T01:51:05;15.70;98.00
26575;DHT22;67165;50.256;10.978;2023-07-20T01:53:31;15.70;98.00
26575;DHT22;67165;50.256;10.978;2023-07-20T01:55:57;15.60;98.00
26575;DHT22;67165;50.256;10.978;2023-07-20T01:58:23;15.60;98.00
26575;DHT22;67165;50.256;10.978;2023-07-20T02:00:50;15.60;98.00
26575;DHT22;67165;50.256;10.978;2023-07-20T02:03:15;15.60;98.00
26575;DHT22;67165;50.256;10.978;2023-07-20T02:05:45;15.50;98.00
26575;DHT22;67165;50.256;10.978;2023-07-20T02:08:11;15.50;98.00
26575;DHT22;67165;50.256;10.978;2023-07-20T02:10:37;15.40;98.00
26575;DHT22;67165;50.256;10.978;2023-07-20T02:13:03;15.40;98.00
26575;DHT22;67165;50.256;10.978;2023-07-20T02:15:28;15.40;98.00
26575;DHT22;67165;50.256;10.978;2023-07-20T02:17:54;15.40;98.00
26575;DHT22;67165;50.256;10.978;2023-07-20T02:20:20;15.40;98.00
26575;DHT22;67165;50.256;10.978;2023-07-20T02:22:46;15.30;98.00
26575;DHT22;67165;50.256;10.978;2023-07-20T02:25:12;15.30;98.00
26575;DHT22;67165;50.256;10.978;2023-07-20T02:27:38;15.30;98.00
26575;DHT22;67165;50.256;10.978;2023-07-20T02:30:05;15.30;98.00
26575;DHT22;67165;50.256;10.978;2023-07-20T02:32:31;15.30;98.00
26575;DHT22;67165;50.256;10.978;2023-07-20T02:35:00;15.30;98.00
26575;DHT22;67165;50.256;10.978;2023-07-20T02:37:25;15.30;98.00
26575;DHT22;67165;50.256;10.978;2023-07-20T02:39:51;15.30;98.00
26575;DHT22;67165;50.256;10.978;2023-07-20T02:42:17;15.20;98.00
26575;DHT22;67165;50.256;10.978;2023-07-20T02:44:43;15.20;98.00
26575;DHT22;67165;50.256;10.978;2023-07-20T02:47:08;15.20;98.00
26575;DHT22;67165;50.256;10.978;2023-07-20T02:49:34;15.10;98.00
26575;DHT22;67165;50.256;10.978;2023-07-20T02:52:00;15.10;98.00
26575;DHT22;67165;50.256;10.978;2023-07-20T02:54:25;15.00;98.00
26575;DHT22;67165;50.256;10.978;2023-07-20T02:56:51;15.00;98.00
26575;DHT22;67165;50.256;10.978;2023-07-20T02:59:17;15.00;98.00
26575;DHT22;67165;50.256;10.978;2023-07-20T03:01:42;14.90;98.00
26575;DHT22;67165;50.256;10.978;2023-07-20T03:04:08;14.90;98.00
26575;DHT22;67165;50.256;10.978;2023-07-20T03:06:37;14.80;98.00
26575;DHT22;67165;50.256;10.978;2023-07-20T03:09:03;14.80;98.00
26575;DHT22;67165;50.256;10.978;2023-07-20T03:11:29;14.80;98.00
26575;DHT22;67165;50.256;10.978;2023-07-20T03:13:55;14.80;98.00
26575;DHT22;67165;50.256;10.978;2023-07-20T03:16:23;14.70;98.00
26575;DHT22;67165;50.256;10.978;2023-07-20T03:18:49;14.70;98.00
26575;DHT22;67165;50.256;10.978;2023-07-20T03:21:14;14.70;98.00
26575;DHT22;67165;50.256;10.978;2023-07-20T03:23:41;14.70;98.00
26575;DHT22;67165;50.256;10.978;2023-07-20T03:26:07;14.70;98.00
26575;DHT22;67165;50.256;10.978;2023-07-20T03:28:34;14.70;98.00
26575;DHT22;67165;50.256;10.978;2023-07-20T03:31:00;14.70;98.00
26575;DHT22;67165;50.256;10.978;2023-07-20T03:33:27;14.70;98.00
26575;DHT22;67165;50.256;10.978;2023-07-20T03:35:54;14.70;98.00
26575;DHT22;67165;50.256;10.978;2023-07-20T03:38:20;14.70;98.00
26575;DHT22;67165;50.256;10.978;2023-07-20T03:41:00;14.70;98.00
26575;DHT22;67165;50.256;10.978;2023-07-20T03:43:26;14.70;98.00
26575;DHT22;67165;50.256;10.978;2023-07-20T03:45:53;14.70;98.00
26575;DHT22;67165;50.256;10.978;2023-07-20T03:48:23;14.70;98.00
26575;DHT22;67165;50.256;10.978;2023-07-20T03:50:50;14.70;98.00
26575;DHT22;67165;50.256;10.978;2023-07-20T03:53:16;14.70;98.00
26575;DHT22;67165;50.256;10.978;2023-07-20T03:55:47;14.80;98.00
26575;DHT22;67165;50.256;10.978;2023-07-20T03:58:14;14.80;98.00
26575;DHT22;67165;50.256;10.978;2023-07-20T04:00:40;14.80;98.00
26575;DHT22;67165;50.256;10.978;2023-07-20T04:03:08;14.70;98.00
26575;DHT22;67165;50.256;10.978;2023-07-20T04:05:34;14.70;98.00
26575;DHT22;67165;50.256;10.978;2023-07-20T04:07:59;14.70;98.00
26575;DHT22;67165;50.256;10.978;2023-07-20T04:10:25;14.70;98.00
26575;DHT22;67165;50.256;10.978;2023-07-20T04:12:50;14.70;98.00
26575;DHT22;67165;50.256;10.978;2023-07-20T04:15:16;14.70;98.00
26575;DHT22;67165;50.256;10.978;2023-07-20T04:17:42;14.70;98.00
26575;DHT22;67165;50.256;10.978;2023-07-20T04:20:08;14.80;98.00
26575;DHT22;67165;50.256;10.978;2023-07-20T04:22:34;14.80;98.00
26575;DHT22;67165;50.256;10.978;2023-07-20T04:25:00;14.80;98.00
26575;DHT22;67165;50.256;10.978;2023-07-20T04:27:26;14.90;98.00
26575;DHT22;67165;50.256;10.978;2023-07-20T04:29:52;14.90;98.00
26575;DHT22;67165;50.256;10.978;2023-07-20T04:32:18;14.90;98.00
26575;DHT22;67165;50.256;10.978;2023-07-20T04:34:43;15.00;98.00
26575;DHT22;67165;50.256;10.978;2023-07-20T04:37:09;15.00;98.00
26575;DHT22;67165;50.256;10.978;2023-07-20T04:39:35;15.00;98.00
26575;DHT22;67165;50.256;10.978;2023-07-20T04:42:00;15.10;98.00
26575;DHT22;67165;50.256;10.978;2023-07-20T04:44:26;15.20;98.00
26575;DHT22;67165;50.256;10.978;2023-07-20T04:46:52;15.30;98.00
26575;DHT22;67165;50.256;10.978;2023-07-20T04:49:17;15.70;98.00
26575;DHT22;67165;50.256;10.978;2023-07-20T04:51:43;16.10;98.00
26575;DHT22;67165;50.256;10.978;2023-07-20T04:54:08;16.60;98.00
26575;DHT22;67165;50.256;10.978;2023-07-20T04:56:34;17.10;98.00
26575;DHT22;67165;50.256;10.978;2023-07-20T04:59:00;17.60;98.00
26575;DHT22;67165;50.256;10.978;2023-07-20T05:01:25;17.90;98.00
26575;DHT22;67165;50.256;10.978;2023-07-20T05:03:52;18.20;98.00
26575;DHT22;67165;50.256;10.978;2023-07-20T05:06:18;18.20;98.00
26575;DHT22;67165;50.256;10.978;2023-07-20T05:08:44;18.10;98.00
26575;DHT22;67165;50.256;10.978;2023-07-20T05:11:10;18.00;98.00
26575;DHT22;67165;50.256;10.978;2023-07-20T05:13:36;17.90;98.00
26575;DHT22;67165;50.256;10.978;2023-07-20T05:16:02;18.20;98.00
26575;DHT22;67165;50.256;10.978;2023-07-20T05:18:28;18.40;98.00
26575;DHT22;67165;50.256;10.978;2023-07-20T05:20:54;18.50;98.00
26575;DHT22;67165;50.256;10.978;2023-07-20T05:23:21;18.60;98.00
26575;DHT22;67165;50.256;10.978;2023-07-20T05:25:53;18.70;98.00
26575;DHT22;67165;50.256;10.978;2023-07-20T05:28:19;18.80;98.00
26575;DHT22;67165;50.256;10.978;2023-07-20T05:30:44;19.00;98.00
26575;DHT22;67165;50.256;10.978;2023-07-20T05:33:10;19.10;98.00
26575;DHT22;67165;50.256;10.978;2023-07-20T05:35:36;19.10;98.00
26575;DHT22;67165;50.256;10.978;2023-07-20T05:38:03;19.20;98.00
26575;DHT22;67165;50.256;10.978;2023-07-20T05:40:30;19.20;98.00
26575;DHT22;67165;50.256;10.978;2023-07-20T05:42:56;19.20;98.00
26575;DHT22;67165;50.256;10.978;2023-07-20T05:45:22;19.30;98.00
26575;DHT22;67165;50.256;10.978;2023-07-20T05:47:48;19.50;98.00
26575;DHT22;67165;50.256;10.978;2023-07-20T05:50:14;19.50;98.00
26575;DHT22;67165;50.256;10.978;2023-07-20T05:52:40;19.70;98.00
26575;DHT22;67165;50.256;10.978;2023-07-20T05:55:06;19.90;98.00
26575;DHT22;67165;50.256;10.978;2023-07-20T05:57:33;20.10;98.00
26575;DHT22;67165;50.256;10.978;2023-07-20T05:59:58;20.20;98.00
26575;DHT22;67165;50.256;10.978;2023-07-20T06:02:24;20.10;98.00
26575;DHT22;67165;50.256;10.978;2023-07-20T06:04:50;20.20;98.00
26575;DHT22;67165;50.256;10.978;2023-07-20T06:07:15;20.20;98.00
26575;DHT22;67165;50.256;10.978;2023-07-20T06:09:41;20.20;98.00
26575;DHT22;67165;50.256;10.978;2023-07-20T06:12:07;20.30;98.00
26575;DHT22;67165;50.256;10.978;2023-07-20T06:14:36;20.40;98.00
26575;DHT22;67165;50.256;10.978;2023-07-20T06:17:02;20.40;98.00
26575;DHT22;67165;50.256;10.978;2023-07-20T06:19:28;20.40;98.00
26575;DHT22;67165;50.256;10.978;2023-07-20T06:21:53;20.50;98.00
26575;DHT22;67165;50.256;10.978;2023-07-20T06:24:19;20.70;98.00
26575;DHT22;67165;50.256;10.978;2023-07-20T06:26:44;21.00;98.00
26575;DHT22;67165;50.256;10.978;2023-07-20T06:29:10;21.10;98.00
26575;DHT22;67165;50.256;10.978;2023-07-20T06:31:36;21.10;98.00
26575;DHT22;67165;50.256;10.978;2023-07-20T06:34:02;21.20;98.00
26575;DHT22;67165;50.256;10.978;2023-07-20T06:36:28;21.40;98.00
26575;DHT22;67165;50.256;10.978;2023-07-20T06:38:55;21.40;98.00
26575;DHT22;67165;50.256;10.978;2023-07-20T06:41:21;21.40;98.00
26575;DHT22;67165;50.256;10.978;2023-07-20T06:43:47;21.40;98.00
26575;DHT22;67165;50.256;10.978;2023-07-20T06:46:13;21.50;98.00
26575;DHT22;67165;50.256;10.978;2023-07-20T06:48:39;21.70;98.00
26575;DHT22;67165;50.256;10.978;2023-07-20T06:51:05;21.80;98.00
26575;DHT22;67165;50.256;10.978;2023-07-20T06:53:31;21.80;98.00
26575;DHT22;67165;50.256;10.978;2023-07-20T06:55:56;21.90;98.00
26575;DHT22;67165;50.256;10.978;2023-07-20T06:58:23;22.10;98.00
26575;DHT22;67165;50.256;10.978;2023-07-20T07:00:49;22.00;98.00
26575;DHT22;67165;50.256;10.978;2023-07-20T07:03:15;21.70;98.00
26575;DHT22;67165;50.256;10.978;2023-07-20T07:05:40;21.80;98.00
26575;DHT22;67165;50.256;10.978;2023-07-20T07:08:06;22.10;98.00
26575;DHT22;67165;50.256;10.978;2023-07-20T07:10:32;22.30;98.00
26575;DHT22;67165;50.256;10.978;2023-07-20T07:12:58;22.60;98.00
26575;DHT22;67165;50.256;10.978;2023-07-20T07:15:24;22.70;98.00
26575;DHT22;67165;50.256;10.978;2023-07-20T07:17:50;22.90;98.00
26575;DHT22;67165;50.256;10.978;2023-07-20T07:20:16;23.00;98.00
26575;DHT22;67165;50.256;10.978;2023-07-20T07:22:42;23.30;98.00
26575;DHT22;67165;50.256;10.978;2023-07-20T07:25:09;23.30;98.00
26575;DHT22;67165;50.256;10.978;2023-07-20T07:27:36;23.30;98.00
26575;DHT22;67165;50.256;10.978;2023-07-20T07:30:02;23.40;98.00
26575;DHT22;67165;50.256;10.978;2023-07-20T07:32:28;23.30;98.00
26575;DHT22;67165;50.256;10.978;2023-07-20T07:34:54;23.00;98.00
26575;DHT22;67165;50.256;10.978;2023-07-20T07:37:20;23.00;98.00
26575;DHT22;67165;50.256;10.978;2023-07-20T07:39:45;22.90;98.00
26575;DHT22;67165;50.256;10.978;2023-07-20T07:42:12;23.10;98.00
26575;DHT22;67165;50.256;10.978;2023-07-20T07:44:38;23.40;98.00
26575;DHT22;67165;50.256;10.978;2023-07-20T07:47:04;23.70;98.00
26575;DHT22;67165;50.256;10.978;2023-07-20T07:49:29;24.10;98.00
26575;DHT22;67165;50.256;10.978;2023-07-20T07:51:56;24.00;98.00
26575;DHT22;67165;50.256;10.978;2023-07-20T07:54:22;24.00;98.00
26575;DHT22;67165;50.256;10.978;2023-07-20T07:56:48;24.10;98.00
26575;DHT22;67165;50.256;10.978;2023-07-20T07:59:14;23.90;98.00
26575;DHT22;67165;50.256;10.978;2023-07-20T08:01:39;24.10;98.00
26575;DHT22;67165;50.256;10.978;2023-07-20T08:04:05;24.50;98.00
26575;DHT22;67165;50.256;10.978;2023-07-20T08:06:31;24.70;98.00
26575;DHT22;67165;50.256;10.978;2023-07-20T08:08:57;24.90;98.00
26575;DHT22;67165;50.256;10.978;2023-07-20T08:11:23;25.10;98.00
26575;DHT22;67165;50.256;10.978;2023-07-20T08:13:49;25.20;98.00
26575;DHT22;67165;50.256;10.978;2023-07-20T08:16:14;25.20;98.00
26575;DHT22;67165;50.256;10.978;2023-07-20T08:18:40;25.40;98.00
26575;DHT22;67165;50.256;10.978;2023-07-20T08:21:06;25.50;98.00
26575;DHT22;67165;50.256;10.978;2023-07-20T08:23:31;25.90;98.00
26575;DHT22;67165;50.256;10.978;2023-07-20T08:25:57;25.70;98.00
26575;DHT22;67165;50.256;10.978;2023-07-20T08:28:22;25.40;98.00
26575;DHT22;67165;50.256;10.978;2023-07-20T08:30:49;25.20;98.00
26575;DHT22;67165;50.256;10.978;2023-07-20T08:33:16;25.30;98.00
26575;DHT22;67165;50.256;10.978;2023-07-20T08:35:43;25.60;98.00
26575;DHT22;67165;50.256;10.978;2023-07-20T08:38:09;25.60;98.00
26575;DHT22;67165;50.256;10.978;2023-07-20T08:40:40;25.50;97.40
26575;DHT22;67165;50.256;10.978;2023-07-20T08:43:06;25.60;98.00
26575;DHT22;67165;50.256;10.978;2023-07-20T08:45:33;25.70;98.00
26575;DHT22;67165;50.256;10.978;2023-07-20T08:48:01;25.30;97.80
26575;DHT22;67165;50.256;10.978;2023-07-20T08:50:31;25.30;98.00
26575;DHT22;67165;50.256;10.978;2023-07-20T08:52:58;25.60;98.00
26575;DHT22;67165;50.256;10.978;2023-07-20T08:55:28;25.70;98.00
26575;DHT22;67165;50.256;10.978;2023-07-20T08:57:56;25.20;97.50
26575;DHT22;67165;50.256;10.978;2023-07-20T09:00:23;24.50;98.00
26575;DHT22;67165;50.256;10.978;2023-07-20T09:02:51;24.20;98.00
26575;DHT22;67165;50.256;10.978;2023-07-20T09:05:18;23.90;98.00
26575;DHT22;67165;50.256;10.978;2023-07-20T09:07:44;24.00;98.00
26575;DHT22;67165;50.256;10.978;2023-07-20T09:10:09;24.30;98.00
26575;DHT22;67165;50.256;10.978;2023-07-20T09:12:40;24.50;98.00
26575;DHT22;67165;50.256;10.978;2023-07-20T09:15:06;24.60;98.00
26575;DHT22;67165;50.256;10.978;2023-07-20T09:17:33;24.60;98.00
26575;DHT22;67165;50.256;10.978;2023-07-20T09:19:59;24.40;98.00
26575;DHT22;67165;50.256;10.978;2023-07-20T09:22:30;24.30;98.00
26575;DHT22;67165;50.256;10.978;2023-07-20T09:24:57;24.30;98.00
26575;DHT22;67165;50.256;10.978;2023-07-20T09:27:38;24.30;98.00
26575;DHT22;67165;50.256;10.978;2023-07-20T09:30:05;24.10;98.00
26575;DHT22;67165;50.256;10.978;2023-07-20T09:32:45;24.00;98.00
26575;DHT22;67165;50.256;10.978;2023-07-20T09:35:19;23.90;98.00
26575;DHT22;67165;50.256;10.978;2023-07-20T09:37:58;24.00;98.00
26575;DHT22;67165;50.256;10.978;2023-07-20T09:40:25;24.10;98.00
26575;DHT22;67165;50.256;10.978;2023-07-20T09:42:52;24.00;98.00
26575;DHT22;67165;50.256;10.978;2023-07-20T09:45:19;24.00;98.00
26575;DHT22;67165;50.256;10.978;2023-07-20T09:47:45;23.80;98.00
26575;DHT22;67165;50.256;10.978;2023-07-20T09:50:11;23.70;98.00
26575;DHT22;67165;50.256;10.978;2023-07-20T09:52:40;23.70;98.00
26575;DHT22;67165;50.256;10.978;2023-07-20T09:55:10;23.60;98.00
26575;DHT22;67165;50.256;10.978;2023-07-20T09:57:37;23.60;98.00
26575;DHT22;67165;50.256;10.978;2023-07-20T10:00:05;23.50;98.00
26575;DHT22;67165;50.256;10.978;2023-07-20T10:02:42;23.60;98.00
26575;DHT22;67165;50.256;10.978;2023-07-20T10:05:14;23.60;98.00
26575;DHT22;67165;50.256;10.978;2023-07-20T10:07:47;23.50;98.00
26575;DHT22;67165;50.256;10.978;2023-07-20T10:10:17;23.60;98.00
26575;DHT22;67165;50.256;10.978;2023-07-20T10:12:44;23.80;98.00
26575;DHT22;67165;50.256;10.978;2023-07-20T10:18:17;23.90;98.00
26575;DHT22;67165;50.256;10.978;2023-07-20T10:20:36;24.10;98.00
26575;DHT22;67165;50.256;10.978;2023-07-20T10:23:03;24.20;98.00
26575;DHT22;67165;50.256;10.978;2023-07-20T10:25:30;24.40;97.80
26575;DHT22;67165;50.256;10.978;2023-07-20T10:27:57;24.60;98.00
26575;DHT22;67165;50.256;10.978;2023-07-20T10:30:25;24.50;97.80
26575;DHT22;67165;50.256;10.978;2023-07-20T10:32:51;24.20;97.20
26575;DHT22;67165;50.256;10.978;2023-07-20T10:35:18;24.10;98.00
26575;DHT22;67165;50.256;10.978;2023-07-20T10:37:53;24.00;98.00
26575;DHT22;67165;50.256;10.978;2023-07-20T10:40:33;23.90;98.00
26575;DHT22;67165;50.256;10.978;2023-07-20T10:43:07;23.70;98.00
26575;DHT22;67165;50.256;10.978;2023-07-20T10:48:16;23.10;98.00
26575;DHT22;67165;50.256;10.978;2023-07-20T10:50:43;22.90;98.00
26575;DHT22;67165;50.256;10.978;2023-07-20T10:53:19;22.80;98.00
26575;DHT22;67165;50.256;10.978;2023-07-20T10:55:44;22.70;98.00
26575;DHT22;67165;50.256;10.978;2023-07-20T10:58:15;22.70;98.00
26575;DHT22;67165;50.256;10.978;2023-07-20T11:01:01;22.70;98.00
26575;DHT22;67165;50.256;10.978;2023-07-20T11:03:28;22.70;98.00
26575;DHT22;67165;50.256;10.978;2023-07-20T11:05:56;22.80;98.00
26575;DHT22;67165;50.256;10.978;2023-07-20T11:08:43;22.80;98.00
26575;DHT22;67165;50.256;10.978;2023-07-20T11:11:22;23.20;98.00
26575;DHT22;67165;50.256;10.978;2023-07-20T11:14:01;23.50;98.00
26575;DHT22;67165;50.256;10.978;2023-07-20T11:16:44;23.80;98.00
26575;DHT22;67165;50.256;10.978;2023-07-20T11:19:22;24.10;98.00
26575;DHT22;67165;50.256;10.978;2023-07-20T11:21:53;24.30;98.00
26575;DHT22;67165;50.256;10.978;2023-07-20T11:24:19;24.50;97.00
26575;DHT22;67165;50.256;10.978;2023-07-20T11:29:16;24.40;94.70
26575;DHT22;67165;50.256;10.978;2023-07-20T11:31:43;24.30;94.40
26575;DHT22;67165;50.256;10.978;2023-07-20T11:34:14;24.40;94.70
26575;DHT22;67165;50.256;10.978;2023-07-20T11:36:41;24.70;96.00
26575;DHT22;67165;50.256;10.978;2023-07-20T11:39:12;25.00;94.00
26575;DHT22;67165;50.256;10.978;2023-07-20T11:41:39;25.00;92.50
26575;DHT22;67165;50.256;10.978;2023-07-20T11:44:10;24.90;93.00
26575;DHT22;67165;50.256;10.978;2023-07-20T11:46:39;24.60;93.90
26575;DHT22;67165;50.256;10.978;2023-07-20T11:49:05;24.40;95.10
26575;DHT22;67165;50.256;10.978;2023-07-20T11:51:32;24.30;96.00
26575;DHT22;67165;50.256;10.978;2023-07-20T11:53:58;24.30;96.30
26575;DHT22;67165;50.256;10.978;2023-07-20T11:56:26;24.30;95.70
26575;DHT22;67165;50.256;10.978;2023-07-20T11:58:55;24.30;96.80
26575;DHT22;67165;50.256;10.978;2023-07-20T12:01:23;24.40;96.00
26575;DHT22;67165;50.256;10.978;2023-07-20T12:03:49;24.40;95.60
26575;DHT22;67165;50.256;10.978;2023-07-20T12:06:15;24.50;95.50
26575;DHT22;67165;50.256;10.978;2023-07-20T12:08:42;24.70;96.00
26575;DHT22;67165;50.256;10.978;2023-07-20T12:11:08;24.80;95.50
26575;DHT22;67165;50.256;10.978;2023-07-20T12:13:43;24.90;95.30
26575;DHT22;67165;50.256;10.978;2023-07-20T12:16:16;24.90;96.40
26575;DHT22;67165;50.256;10.978;2023-07-20T12:18:43;24.70;97.50
26575;DHT22;67165;50.256;10.978;2023-07-20T12:21:09;24.40;97.70
26575;DHT22;67165;50.256;10.978;2023-07-20T12:23:39;24.40;97.40
26575;DHT22;67165;50.256;10.978;2023-07-20T12:26:09;24.30;97.00
26575;DHT22;67165;50.256;10.978;2023-07-20T12:28:41;24.10;98.00
26575;DHT22;67165;50.256;10.978;2023-07-20T12:31:11;23.70;98.00
26575;DHT22;67165;50.256;10.978;2023-07-20T12:33:37;23.70;98.00
26575;DHT22;67165;50.256;10.978;2023-07-20T12:36:04;23.70;98.00
26575;DHT22;67165;50.256;10.978;2023-07-20T12:38:30;23.70;98.00
26575;DHT22;67165;50.256;10.978;2023-07-20T12:40:57;23.80;98.00
26575;DHT22;67165;50.256;10.978;2023-07-20T12:43:23;23.70;98.00
26575;DHT22;67165;50.256;10.978;2023-07-20T12:45:49;23.60;98.00
26575;DHT22;67165;50.256;10.978;2023-07-20T12:48:15;23.60;98.00
26575;DHT22;67165;50.256;10.978;2023-07-20T12:50:41;23.50;98.00
26575;DHT22;67165;50.256;10.978;2023-07-20T12:53:07;23.40;97.70
26575;DHT22;67165;50.256;10.978;2023-07-20T12:55:32;23.20;97.40
26575;DHT22;67165;50.256;10.978;2023-07-20T12:57:58;23.20;97.20
26575;DHT22;67165;50.256;10.978;2023-07-20T13:00:24;23.10;96.30
26575;DHT22;67165;50.256;10.978;2023-07-20T13:02:50;22.90;96.70
26575;DHT22;67165;50.256;10.978;2023-07-20T13:05:16;22.60;96.70
26575;DHT22;67165;50.256;10.978;2023-07-20T13:07:42;22.50;97.40
26575;DHT22;67165;50.256;10.978;2023-07-20T13:10:09;22.60;97.00
26575;DHT22;67165;50.256;10.978;2023-07-20T13:12:36;22.60;97.50
26575;DHT22;67165;50.256;10.978;2023-07-20T13:15:03;22.50;96.90
26575;DHT22;67165;50.256;10.978;2023-07-20T13:17:32;22.40;97.80
26575;DHT22;67165;50.256;10.978;2023-07-20T13:19:58;22.60;97.20
26575;DHT22;67165;50.256;10.978;2023-07-20T13:22:24;22.60;96.40
26575;DHT22;67165;50.256;10.978;2023-07-20T13:24:50;22.60;95.90
26575;DHT22;67165;50.256;10.978;2023-07-20T13:27:19;22.60;97.20
26575;DHT22;67165;50.256;10.978;2023-07-20T13:29:45;22.70;97.30
26575;DHT22;67165;50.256;10.978;2023-07-20T13:32:15;23.00;96.80
26575;DHT22;67165;50.256;10.978;2023-07-20T13:34:41;23.10;96.10
26575;DHT22;67165;50.256;10.978;2023-07-20T13:37:08;23.20;95.90
26575;DHT22;67165;50.256;10.978;2023-07-20T13:39:33;23.20;96.50
26575;DHT22;67165;50.256;10.978;2023-07-20T13:41:59;23.30;95.70
26575;DHT22;67165;50.256;10.978;2023-07-20T13:44:26;23.30;95.40
26575;DHT22;67165;50.256;10.978;2023-07-20T13:46:52;23.50;95.10
26575;DHT22;67165;50.256;10.978;2023-07-20T13:49:18;23.60;93.70
26575;DHT22;67165;50.256;10.978;2023-07-20T13:51:44;23.80;94.50
26575;DHT22;67165;50.256;10.978;2023-07-20T13:54:10;23.80;94.40
26575;DHT22;67165;50.256;10.978;2023-07-20T13:56:36;23.90;94.00
26575;DHT22;67165;50.256;10.978;2023-07-20T13:59:01;24.10;94.70
26575;DHT22;67165;50.256;10.978;2023-07-20T14:01:27;24.10;93.30
26575;DHT22;67165;50.256;10.978;2023-07-20T14:03:55;24.20;90.80
26575;DHT22;67165;50.256;10.978;2023-07-20T14:06:21;24.20;91.40
26575;DHT22;67165;50.256;10.978;2023-07-20T14:08:46;24.30;91.70
26575;DHT22;67165;50.256;10.978;2023-07-20T14:11:14;24.20;90.80
26575;DHT22;67165;50.256;10.978;2023-07-20T14:13:40;24.00;91.60
26575;DHT22;67165;50.256;10.978;2023-07-20T14:16:05;23.70;91.50
26575;DHT22;67165;50.256;10.978;2023-07-20T14:18:31;23.40;93.60
26575;DHT22;67165;50.256;10.978;2023-07-20T14:20:57;23.40;92.90
26575;DHT22;67165;50.256;10.978;2023-07-20T14:23:23;23.60;93.70
26575;DHT22;67165;50.256;10.978;2023-07-20T14:25:49;23.90;94.40
26575;DHT22;67165;50.256;10.978;2023-07-20T14:28:14;24.10;92.40
26575;DHT22;67165;50.256;10.978;2023-07-20T14:30:41;24.20;92.50
26575;DHT22;67165;50.256;10.978;2023-07-20T14:33:06;24.20;92.30
26575;DHT22;67165;50.256;10.978;2023-07-20T14:35:33;24.20;92.90
26575;DHT22;67165;50.256;10.978;2023-07-20T14:37:59;24.30;91.70
26575;DHT22;67165;50.256;10.978;2023-07-20T14:40:25;24.20;92.00
26575;DHT22;67165;50.256;10.978;2023-07-20T14:42:51;24.30;93.00
26575;DHT22;67165;50.256;10.978;2023-07-20T14:45:17;24.30;92.10
26575;DHT22;67165;50.256;10.978;2023-07-20T14:47:44;24.50;91.50
26575;DHT22;67165;50.256;10.978;2023-07-20T14:50:11;24.50;91.60
26575;DHT22;67165;50.256;10.978;2023-07-20T14:52:37;24.50;90.20
26575;DHT22;67165;50.256;10.978;2023-07-20T14:55:03;24.50;91.10
26575;DHT22;67165;50.256;10.978;2023-07-20T14:57:29;24.40;91.30
26575;DHT22;67165;50.256;10.978;2023-07-20T14:59:54;24.30;90.80
26575;DHT22;67165;50.256;10.978;2023-07-20T15:02:20;24.20;91.10
26575;DHT22;67165;50.256;10.978;2023-07-20T15:04:50;24.20;91.30
26575;DHT22;67165;50.256;10.978;2023-07-20T15:07:20;24.00;92.30
26575;DHT22;67165;50.256;10.978;2023-07-20T15:09:47;23.80;91.90
26575;DHT22;67165;50.256;10.978;2023-07-20T15:12:13;23.60;92.30
26575;DHT22;67165;50.256;10.978;2023-07-20T15:14:43;23.50;94.00
26575;DHT22;67165;50.256;10.978;2023-07-20T15:17:09;23.40;93.80
26575;DHT22;67165;50.256;10.978;2023-07-20T15:19:35;23.40;94.80
26575;DHT22;67165;50.256;10.978;2023-07-20T15:22:02;23.40;93.30
26575;DHT22;67165;50.256;10.978;2023-07-20T15:24:29;23.40;94.00
26575;DHT22;67165;50.256;10.978;2023-07-20T15:26:54;23.30;95.50
26575;DHT22;67165;50.256;10.978;2023-07-20T15:29:20;23.30;95.40
26575;DHT22;67165;50.256;10.978;2023-07-20T15:31:47;23.30;95.80